• Join FlightAware (Why Join?)
  • Login
  • US Flag 
04:42AM EDT


 

Airport Tracker/Info


-or-


 

Live Flight TrackerFlight Track Log ✈ DAL1981 ✈ 19-Jun-2013 ✈ KSMF - KMSP

Flight Track Log - Related Links

Times and Time Zones

All times are in EDT time to prevent confusion due to time zone crossing. See the DAL1981 flight status page for this flight to view local times or setup timezone preferences in your user account.

Time Position Orientation Groundspeed Altitude Reporting Facility
EDT Latitude Longitude Course Direction KTS MPH feet Rate Location/Type
03:57PM 38.7333 -121.6000 78° East 162 186 1,800  Level Northern Cal TRACON
03:58PM 38.7500 -121.5333 72° East 233 268 3,000 1,800 Climbing Northern Cal TRACON
03:59PM 38.4980 -121.2471 80° East  Level FlightAware Approximate
03:59PM 38.7500 -121.4333 90° East 273 314 5,500  Level Northern Cal TRACON
04:00PM 38.5360 -121.0870 76° East  Level FlightAware Approximate
04:00PM 38.7500 -121.3333 90° East 279 321 8,800  Level Northern Cal TRACON
04:01PM 38.5656 -120.9234 78° East  Level FlightAware Approximate
04:01PM 38.7500 -121.2500 90° East 310 357 10,100  Level Northern Cal TRACON
04:02PM 38.5930 -120.7592 78° East  Level FlightAware Approximate
04:02PM 38.7386 -121.0964 95° East 348 400 11,500  Level Oakland Center
04:03PM 38.7364 -120.9525 91° East 394 453 13,500 1,860 Climbing Oakland Center
04:04PM 38.7811 -120.8247 66° East 406 467 15,400 1,800 Climbing Oakland Center
04:05PM 38.8525 -120.7075 52° Northeast 415 478 17,200 1,620 Climbing Oakland Center
04:06PM 38.9275 -120.5861 52° Northeast 430 495 18,800 1,500 Climbing Oakland Center
04:07PM 39.0047 -120.4603 52° Northeast 446 513 20,300 1,440 Climbing Oakland Center
04:08PM 39.0833 -120.3314 52° Northeast 456 525 21,800 1,440 Climbing Oakland Center
04:09PM 39.1797 -120.1717 52° Northeast 470 541 23,300 1,260 Climbing Oakland Center
04:10PM 39.2517 -120.0572 51° Northeast 482 555 24,400 1,260 Climbing Oakland Center
04:11PM 39.3528 -119.8911 52° Northeast 488 562 25,900 1,020 Climbing Oakland Center
04:12PM 39.4364 -119.7506 52° Northeast 491 565 26,600 780 Climbing Oakland Center
04:13PM 39.5211 -119.6069 53° Northeast 498 573 27,500 780 Climbing Oakland Center
04:14PM 39.6072 -119.4617 52° Northeast 503 579 28,300 840 Climbing Oakland Center
04:15PM 39.6944 -119.3153 52° Northeast 508 585 29,300 840 Climbing Oakland Center
04:16PM 39.7808 -119.1686 53° Northeast 507 583 30,100 780 Climbing Oakland Center
04:17PM 39.8675 -119.0197 53° Northeast 510 587 30,900 780 Climbing Oakland Center
04:18PM 39.9331 -118.8511 63° Northeast 523 602 31,800 900 Climbing Oakland Center
04:19PM 39.9886 -118.6758 67° East 519 597 32,800 900 Climbing Oakland Center
04:20PM 40.0428 -118.5019 68° East 516 594 33,700 780 Climbing Oakland Center
04:21PM 40.0956 -118.3300 68° East 510 587 34,400 600 Climbing Oakland Center
04:22PM 40.1483 -118.1578 68° East 510 587 35,000 300 Climbing Oakland Center
04:23PM 40.1981 -117.9908 69° East 513 590 35,000  Level Salt Lake Center
04:24PM 40.2503 -117.8208 68° East 521 600 35,000  Level Salt Lake Center
04:25PM 40.3108 -117.6203 68° East 529 609 35,000  Level Salt Lake Center
04:26PM 40.3631 -117.4469 68° East 532 612 35,000  Level Salt Lake Center
04:27PM 40.4150 -117.2731 69° East 533 613 35,000  Level Salt Lake Center
04:28PM 40.4761 -117.0711 68° East 528 608 35,000  Level Salt Lake Center
04:29PM 40.5281 -116.8917 69° East 533 613 35,000  Level Salt Lake Center
04:30PM 40.5792 -116.7164 69° East 527 606 35,000  Level Salt Lake Center
04:32PM 40.6372 -116.5122 69° East 530 610 35,100  Climbing Salt Lake Center
04:33PM 40.6872 -116.3386 69° East 529 609 35,000 -60 Descending Salt Lake Center
04:34PM 40.7458 -116.1361 69° East 529 609 35,000  Level Salt Lake Center
04:35PM 40.7958 -115.9614 69° East 531 611 35,000  Level Salt Lake Center
04:36PM 40.8447 -115.7836 70° East 531 611 35,000  Level Salt Lake Center
04:37PM 40.9019 -115.5789 70° East 534 615 35,000  Level Salt Lake Center
04:38PM 40.9514 -115.4014 70° East 537 618 35,100  Climbing Salt Lake Center
04:39PM 41.0075 -115.1936 70° East 536 617 35,000 -60 Descending Salt Lake Center
04:40PM 41.0553 -115.0186 70° East 532 612 35,000  Level Salt Lake Center
04:41PM 41.1089 -114.8181 70° East 519 597 35,000  Level Salt Lake Center
04:42PM 41.1539 -114.6522 70° East 515 593 35,000  Level Salt Lake Center
04:43PM 41.2006 -114.4719 71° East 517 595 35,000 -60 Level Salt Lake Center
04:44PM 41.2478 -114.2925 71° East 516 594 34,900 -60 Descending Salt Lake Center
04:45PM 41.3047 -114.0767 71° East 516 594 34,900 60 Level Salt Lake Center
04:46PM 41.3531 -113.8944 70° East 522 601 35,100 60 Climbing Salt Lake Center
04:47PM 41.4011 -113.7122 71° East 523 602 35,100 -60 Level Salt Lake Center
04:48PM 41.4458 -113.5300 72° East 519 597 35,000 -120 Descending Salt Lake Center
04:49PM 41.4939 -113.3478 71° East 521 600 34,900  Descending Salt Lake Center
04:50PM 41.5397 -113.1633 72° East 524 603 35,000 60 Climbing Salt Lake Center
04:51PM 41.5858 -112.9794 71° East 523 602 35,100  Climbing Salt Lake Center
04:52PM 41.6422 -112.7608 71° East 520 598 35,000 -120 Descending Salt Lake Center
04:53PM 41.6856 -112.5800 72° East 513 590 34,900  Descending Salt Lake Center
04:54PM 41.7303 -112.3964 72° East 516 594 35,000  Climbing Salt Lake Center
04:55PM 41.7747 -112.2114 72° East 519 597 35,000  Level Salt Lake Center
04:56PM 41.8189 -112.0256 72° East 522 601 35,000  Level Salt Lake Center
04:57PM 41.8631 -111.8433 72° East 515 593 35,000  Level Salt Lake Center
04:58PM 41.9064 -111.6597 72° East 514 592 35,000  Level Salt Lake Center
04:59PM 41.9503 -111.4772 72° East 515 593 35,000  Level Salt Lake Center
05:00PM 41.9919 -111.2972 73° East 505 581 35,000 -60 Level Salt Lake Center
05:01PM 42.0411 -111.0858 73° East 495 570 34,900 -780 Descending Salt Lake Center
05:02PM 42.0825 -110.9069 73° East 483 556 33,500 -960 Descending Salt Lake Center
05:03PM 42.1206 -110.7367 73° East 492 566 33,000 -300 Descending Salt Lake Center
05:04PM 42.1606 -110.5619 73° East 505 581 33,000  Level Salt Lake Center
05:05PM 42.2061 -110.3603 73° East 504 580 33,000  Level Salt Lake Center
05:07PM 42.2431 -110.1872 74° East 501 577 33,000  Level Salt Lake Center
05:08PM 42.2883 -109.9858 73° East 502 578 33,000  Level Salt Lake Center
05:09PM 42.3253 -109.8128 74° East 500 575 33,000  Level Salt Lake Center
05:10PM 42.3700 -109.6103 73° East 502 578 33,000  Level Salt Lake Center
05:11PM 42.4078 -109.4361 74° East 502 578 33,000  Level Salt Lake Center
05:12PM 42.4447 -109.2611 74° East 504 580 33,000  Level Salt Lake Center
05:13PM 42.4875 -109.0575 74° East 503 579 33,000  Level Salt Lake Center
05:14PM 42.5242 -108.8836 74° East 500 575 33,000  Level Salt Lake Center
05:15PM 42.5667 -108.6797 74° East 502 578 33,000  Level Salt Lake Center
05:16PM 42.6022 -108.5058 74° East 500 575 33,100  Climbing Salt Lake Center
05:17PM 42.6425 -108.3039 75° East 497 572 33,000 -60 Descending Salt Lake Center
05:18PM 42.6772 -108.1325 75° East 493 567 33,000  Level Salt Lake Center
05:19PM 42.7122 -107.9606 74° East 493 567 33,000  Level Salt Lake Center
05:20PM 42.7522 -107.7578 75° East 496 571 33,000  Level Salt Lake Center
05:21PM 42.7858 -107.5853 75° East 493 567 33,000  Level Salt Lake Center
05:22PM 42.8250 -107.3825 75° East 496 571 33,000  Level Salt Lake Center
05:23PM 42.8586 -107.2100 75° East 494 568 33,000  Level Salt Lake Center
05:24PM 42.8961 -107.0083 76° East 491 565 33,000  Level Salt Lake Center
05:25PM 42.9278 -106.8436 75° East 491 565 33,000  Level Salt Lake Center
05:26PM 42.9531 -106.6975 77° East 491 565 33,000  Level Denver Center
05:27PM 42.9847 -106.5239 76° East 492 566 33,000  Level Denver Center
05:28PM 43.0231 -106.3214 75° East 492 566 33,000  Level Denver Center
05:29PM 43.0531 -106.1467 77° East 493 567 33,000  Level Denver Center
05:30PM 43.0603 -105.9394 87° East 486 559 33,000  Level Denver Center
05:31PM 43.0686 -105.7597 86° East 492 566 33,000  Level Denver Center
05:32PM 43.0614 -105.5817 93° East 491 565 33,000  Level Denver Center
05:33PM 43.0647 -105.3719 89° East 492 566 33,000  Level Denver Center
05:34PM 43.0961 -105.1936 76° East 501 577 33,000  Level Denver Center
05:35PM 43.1336 -104.9892 76° East 497 572 33,000  Level Denver Center
05:36PM 43.1644 -104.8136 76° East 495 570 33,000  Level Denver Center
05:37PM 43.2006 -104.6081 76° East 494 568 33,000  Level Denver Center
05:38PM 43.2319 -104.4311 76° East 496 571 33,000  Level Denver Center
05:39PM 43.2636 -104.2550 76° East 496 571 33,000  Level Denver Center
05:40PM 43.2994 -104.0486 77° East 496 571 33,000  Level Denver Center
05:41PM 43.3292 -103.8753 77° East 492 566 33,000  Level Denver Center
05:42PM 43.3650 -103.6711 76° East 491 565 33,000  Level Denver Center
05:43PM 43.3939 -103.4928 77° East 497 572 33,000  Level Denver Center
05:44PM 43.4275 -103.2889 77° East 492 566 33,000  Level Denver Center
05:45PM 43.4553 -103.1125 78° East 493 567 33,000  Level Denver Center
05:46PM 43.4897 -102.9075 77° East 491 565 33,000  Level Denver Center
05:47PM 43.5183 -102.7319 77° East 492 566 33,000  Level Denver Center
05:49PM 43.5506 -102.5261 78° East 493 567 33,000  Level Denver Center
05:50PM 43.5783 -102.3478 78° East 496 571 33,000  Level Denver Center
05:51PM 43.6111 -102.1394 78° East 499 574 33,000  Level Denver Center
05:52PM 43.6361 -101.9722 78° East 498 573 33,000  Level Denver Center
05:53PM 43.6647 -101.7886 78° East 493 567 33,000  Level Denver Center
05:54PM 43.6972 -101.5661 79° East 493 567 33,000  Level Denver Center
05:55PM 43.7247 -101.3833 78° East 489 563 33,000  Level Denver Center
05:56PM 43.7569 -101.1658 78° East 487 560 33,000  Level Minneapolis Center
05:57PM 43.7828 -100.9819 79° East 485 558 33,000  Level Denver Center
05:58PM 43.8092 -100.7992 79° East 486 559 33,000  Level Denver Center
05:59PM 43.8411 -100.5811 78° East 486 559 33,000  Level Minneapolis Center
06:00PM 43.8664 -100.3969 79° East 487 560 33,000  Level Minneapolis Center
06:01PM 43.8903 -100.2131 80° East 488 562 33,000  Level Minneapolis Center
06:02PM 43.9161 -100.0319 79° East 484 557 33,000  Level Minneapolis Center
06:03PM 43.9403 -99.8489 80° East 484 557 33,000  Level Minneapolis Center
06:04PM 43.9642 -99.6672 80° East 483 556 33,000  Level Minneapolis Center
06:05PM 43.9922 -99.4500 80° East 481 554 33,000  Level Minneapolis Center
06:06PM 44.0153 -99.2689 80° East 480 552 33,000  Level Minneapolis Center
06:07PM 44.0394 -99.0864 80° East 481 554 33,000  Level Minneapolis Center
06:08PM 44.0619 -98.9050 80° East 480 552 33,000  Level Minneapolis Center
06:09PM 44.0842 -98.7233 80° East 479 551 33,000  Level Minneapolis Center
06:10PM 44.1078 -98.5356 80° East 478 550 33,000 180 Level Minneapolis Center
06:12PM 44.1336 -98.3181 81° East 477 549 33,400 720 Climbing Minneapolis Center
06:13PM 44.1558 -98.1364 80° East 478 550 34,600 1,200 Climbing Minneapolis Center
06:14PM 44.1764 -97.9600 81° East 466 536 36,000 1,140 Climbing Minneapolis Center
06:15PM 44.1956 -97.7889 81° East 452 520 37,000 480 Climbing Minneapolis Center
06:16PM 44.2147 -97.6158 81° East 452 520 37,000  Level Minneapolis Center
06:17PM 44.2347 -97.4403 81° East 458 527 37,000  Level Minneapolis Center
06:18PM 44.2581 -97.2281 81° East 461 531 37,000  Level Minneapolis Center
06:19PM 44.2764 -97.0522 82° East 460 529 37,000  Level Minneapolis Center
06:20PM 44.2947 -96.8800 81° East 452 520 37,000  Level Minneapolis Center
06:21PM 44.3133 -96.7089 81° East 446 513 37,000  Level Minneapolis Center
06:22PM 44.3311 -96.5389 82° East 442 509 37,000  Level Minneapolis Center
06:23PM 44.3494 -96.3675 81° East 442 509 37,000 -240 Level Minneapolis Center
06:24PM 44.3667 -96.1950 82° East 441 507 36,600 -660 Descending Minneapolis Center
06:25PM 44.3847 -96.0225 82° East 442 509 35,700 -1,080 Descending Minneapolis Center
06:26PM 44.4039 -95.8133 83° East 450 518 34,400 -2,280 Descending Minneapolis Center
06:27PM 44.4208 -95.6364 82° East 457 526 31,100 -3,000 Descending Minneapolis Center
06:28PM 44.4378 -95.4578 82° East 463 533 28,200 -1,920 Descending Minneapolis Center
06:29PM 44.4533 -95.2769 83° East 467 537 27,200 -1,560 Descending Minneapolis Center
06:30PM 44.4731 -95.0936 81° East 475 547 25,000 -2,460 Descending Minneapolis Center
06:31PM 44.5164 -94.9183 71° East 476 548 22,200 -3,000 Descending Minneapolis Center
06:32PM 44.5656 -94.7161 71° East 461 531 18,900 -2,880 Descending Minneapolis Center
06:33PM 44.6014 -94.5608 72° East 447 514 16,300 -2,460 Descending Minneapolis Center
06:34PM 44.6372 -94.4050 72° East 422 486 13,800 -2,460 Descending Minneapolis Center
06:35PM 44.6711 -94.2539 72° East 405 466 11,200 -1,440 Descending Minneapolis Center
06:36PM 44.6956 -94.0678 79° East 405 466 10,900 -300 Descending Minneapolis Center
06:37PM 44.7369 -93.9442 65° Northeast 340 391 10,700 -960 Descending Minneapolis Center
06:38PM 44.7861 -93.8531 53° Northeast 293 337 9,000 -1,200 Descending Minneapolis Center
06:39PM 44.8486 -93.7967 33° Northeast 265 305 8,200 -900 Descending Minneapolis Center
06:40PM 44.9081 -93.7422 33° Northeast 255 293 7,200 -840 Descending Minneapolis Center
06:42PM 44.9439 -93.6561 60° Northeast 257 296 6,500 -1,020 Descending Minneapolis Center
06:43PM 44.9653 -93.5447 75° East 245 282 5,200 -1,260 Descending Minneapolis Center